Hlavní strana
METAR-TAF:

METAR-TAF

Letiště :

Šiauliai, Litva

zeměpisná šířka: 55-53-38N, zeměpisná délka: 023-23-42E, výška: 135 m

Aktuální stav počasí

Zpráva byla vytvořena před 16 minutami, v 21:20 UTC
Jihozápadní vítr 13 kt
Teplota 8°C
Vlhkost vzduchu 87%
Tlak 1017 hPa
Viditelnost 10 km a více
Skoro jasno ve výšce 1500 ft

METAR: EYSA 252120Z 23013KT 9999 FEW015 08/06 Q1017 R14L/19//95 R14R/19//95 BLU NOSIG

Čas: 23:36 (21:36 UTC)

Předpověď počasí

Zpráva byla vytvořena před 1 hodinou a 36 minutami, v 20:00 UTC
Předpověď platná od 25 v 21 UTC do 26 v 06 UTC
Jihozápadní vítr 12 kt
Viditelnost: 9000 m
Polojasno ve výšce 1500 ft
Změna
od 25 v 23 UTC do 25 v 24 UTC
Zataženo ve výšce 500 ft

TAF: EYSA 252000Z 2521/2606 23012KT 9000 SCT015 BECMG 2523/2524 OVC005

Stav a předpovědi počasí z více než 4 000 letišť (zprávy METAR a TAF).

Červené a žluté tečky na mapě představují dostupné meteorologické stanice.

Když kurzor umístíte na tečku, zobrazí se název stanice.

Pak kliknutím zobrazíte stav a předpověď počasí.

Chcete-li změnit mapu, kliknutím na zelené tlačítko se znaménkem +mapu přiblížíte, kliknutím na zelené tlačítko se znaménkem – mapu oddálíte a kliknutím na zelené šipky přejdete na sousední mapy.


METAR-TAF: